x

Grays Reef - 40 Nm Southeast Of Savannah, Ga (41008) Wave Buoy

3:50pm - Fri 29th May 2015 All times are EDT. -4 hours from GMT.

  • Sig Wave height 4.3ft
  • Swell Direction
  • Peak Period 9s
  • Average Period 5s
  • Wind
    18mph, 20mph gusts
  • Sea Temp 78°f
  • Air Temp 75°f
  • Sea Pressure 1021.6mb
  • Grays Reef - 40 Nm Southeast Of Savannah, Ga
  • Grays Reef - 40 Nm Southeast Of Savannah, Ga

More Historic Weather Station data

Upgrade to MSW Pro to gain access to the past 30 days of data for over 8000 Wavebouys and Weather Stations around the globe.

Join Pro

Comparision Forecast

View Surf forecast
   
Fri 05/29 3:50pm 4.5ft 9s 5s 18 20 mph 1021.6mb 78f 75f
2:50pm 4ft 8s 5s 16 20 mph 1022.2mb 78f 75f
1:50pm 4.5ft 8s 5s 20 25 mph 1022.5mb 78f 73f
12:50pm 4ft 8s 5s 18 20 mph 1022.9mb 78f 76f
11:50am 3.5ft 8s 5s 16 18 mph 1022.9mb 78f 76f
10:50am 3.5ft 8s 5s 13 16 mph 1022.7mb 78f 76f
9:50am 3ft 9s 6s 11 13 mph 1022.2mb 78f 77f
8:50am 3ft 8s 5s 11 13 mph 1021.8mb 78f 77f
7:50am 3ft 9s  -  9 11 mph 1021.1mb 78f 77f
6:50am 3.5ft 8s 5s 11 16 mph 1020.4mb 78f 76f
5:50am 3.5ft 8s 5s 13 16 mph 1019.9mb 78f 77f
4:50am 3ft 9s 5s 13 18 mph 1019.9mb 78f 77f
3:50am 3ft 8s 5s 7 9 mph 1020mb 78f 77f
2:50am 3ft 8s 5s 9 11 mph 1020.7mb 78f 77f
1:50am 2.5ft 7s 5s 9 11 mph 1021.4mb 78f 77f
12:50am 2.5ft 8s 5s 9 11 mph 1022.1mb 78f 77f
Thu 05/28 11:50pm 2.5ft 8s 5s 7 9 mph 1022.5mb 78f 77f
10:50pm 2.5ft 8s 5s 9 11 mph 1022.3mb 78f 77f
9:50pm 3ft 8s 5s 9 11 mph 1022mb 78f 77f
8:50pm 2.5ft 8s 5s 11
mph
1021.6mb 79f 77f
7:50pm 2.5ft 8s 5s 9 11 mph 1021.6mb 79f 77f
6:50pm 3ft 9s 5s 11 13 mph 1021.1mb 79f 77f
5:50pm 3ft 8s 5s 13 16 mph 1020.8mb 79f 77f
4:50pm 3ft 8s 5s 11
mph
1021.4mb 79f 77f
3:50pm 3.5ft 7s 5s 7 11 mph 1021.9mb 79f 78f
2:50pm 3.5ft 8s 5s 7 9 mph 1022.7mb 79f 78f
1:50pm 3.5ft 8s 5s 9 11 mph 1023.1mb 79f 77f
12:50pm 3.5ft 7s 5s 9
mph
1023.5mb 78f 77f
11:50am 3.5ft 8s 5s 9 11 mph 1023.8mb 78f 77f
10:50am 3ft 8s 5s 11 13 mph 1023.5mb 78f 77f
9:50am 3ft 8s 5s 11 13 mph 1023.3mb 78f 77f
8:50am 2.5ft 8s 6s 11 13 mph 1023mb 78f 77f
7:50am 2.5ft 8s 6s 9
mph
1022.5mb 78f 77f
6:50am 2.5ft 8s 6s 7
mph
1021.9mb 78f 77f
5:50am 3ft 8s 5s 7 9 mph 1021.4mb 78f 77f
4:50am 3ft 8s 5s 4 7 mph 1021.4mb 78f 77f
3:50am 3ft 7s 5s 4 7 mph 1021.4mb 78f 77f
2:50am 3ft 7s 5s 9 11 mph 1021.7mb 78f 77f
1:50am 3ft 8s 5s 7 11 mph 1022.2mb 78f 77f
12:50am 3ft 7s 5s 11 13 mph 1022.2mb 78f 77f
Wed 05/27 11:50pm 2.5ft 7s  -  11
mph
1022.8mb 78f 78f
10:50pm 2.5ft 7s 5s 11 13 mph 1023mb 78f 78f
9:50pm 2.5ft 7s 5s 11
mph
1022.9mb 78f 78f
8:50pm 2.5ft 7s 5s 11
mph
1022.4mb 79f 78f
7:50pm 2.5ft 7s 5s 9 11 mph 1022.5mb 78f 78f
6:50pm 2.5ft 8s 5s 4 7 mph 1022.5mb 79f 78f
5:50pm 2.5ft 7s 5s 7 9 mph 1022.4mb 80f 78f
4:50pm 3ft 7s 5s 7 9 mph 1022.7mb 79f 78f
3:50pm 3.5ft 6s 5s 7 11 mph 1023.2mb 79f 78f
2:50pm 3.5ft 7s 5s 7
mph
1023.9mb 79f 78f
1:50pm 3.5ft 7s 5s 4 7 mph 1024.5mb 79f 78f
12:50pm 3.5ft 7s 5s 4 7 mph 1024.7mb 78f 78f
11:50am 3ft 6s 5s 7
mph
1025mb 78f 78f
10:50am 3.5ft 7s 5s 7 9 mph 1024.9mb 77f 77f
9:50am 3ft 5s 5s 7 9 mph 1024.8mb 77f 77f
8:50am 3ft 6s 5s 9
mph
1024.5mb 77f 77f
7:50am 3ft 7s 5s 13 16 mph 1023.3mb 77f 77f
6:50am 3ft 6s 5s 11 13 mph 1022.7mb 77f 77f
5:50am 3ft 7s 5s 11 13 mph 1022mb 77f 76f
4:50am 3ft 6s 5s 13 16 mph 1021.2mb 77f 77f
3:50am 3.5ft 7s 5s 13 16 mph 1021.5mb 77f 77f
2:50am 3.5ft 6s 5s 11 13 mph 1022.7mb 78f 77f
1:50am 3.5ft 6s 5s 13
mph
1023.8mb 78f 77f
12:50am 3.5ft 5s 4s 11
mph
1024.7mb 78f 78f
Tue 05/26 11:50pm 3ft 6s 4s 11 13 mph 1024.8mb 78f 78f
10:50pm 3ft 6s 4s 13 16 mph 1024.8mb 78f 78f
9:50pm 2.5ft 7s 4s 11 13 mph 1024.1mb 78f 78f
8:50pm 2.5ft 7s 5s 13 16 mph 1023.9mb 78f 78f
7:50pm 2.5ft 7s 5s 11 13 mph 1023.3mb 79f 79f
6:50pm 2.5ft 7s 5s 9 11 mph 1022.8mb 79f 78f
5:50pm 2.5ft 7s 5s 11 13 mph 1022.4mb 79f 78f
4:50pm 2.5ft 7s 5s 9 11 mph 1022.8mb 78f 78f
3:50pm 3ft 7s 5s 13 16 mph 1022.9mb 79f 77f
2:50pm 3ft 7s 5s 11 13 mph 1023.5mb 79f 78f
1:50pm 3ft 7s 5s 7
mph
1024.1mb 79f 78f
11:50am 3ft 6s 5s 4 7 mph 1025mb 77f 77f
10:50am 3ft 7s 5s 7
mph
1025mb 77f 77f
9:50am 3ft 7s 5s 4 7 mph 1025mb 77f 77f
8:50am 2.5ft 7s 5s 4 7 mph 1025mb 76f 77f
7:50am 2.5ft 7s 5s 2 4 mph 1024.6mb 76f 77f
6:50am 2.5ft 7s 5s 4
mph
1023.7mb 76f 76f
5:50am 2.5ft 8s 5s 7 9 mph 1022.9mb 76f 76f
4:50am 2.5ft 8s 5s 7
mph
1022.6mb 75f 76f
3:50am 2.5ft 7s 5s 7 9 mph 1022.6mb 75f 76f
2:50am 3ft 7s 5s 7 9 mph 1022.8mb 75f 76f
1:50am 3.5ft 7s 5s 9 11 mph 1022.9mb 75f 76f
12:50am 3.5ft 7s 5s 9 11 mph 1023.8mb 76f 76f
Mon 05/25 11:50pm 3.5ft 7s 5s 11
mph
1024.3mb 76f 76f
10:50pm 3.5ft 7s 5s 11
mph
1024.3mb 76f 76f
9:50pm 3.5ft 8s 5s 11 13 mph 1023.7mb 76f 76f